sensor_id;sensor_type;location;lat;lon;timestamp;noise_LAeq;noise_LA_min;noise_LA_max;noise_LA01;noise_LA95
61095;Laerm;20450;49.074;9.158;2023-07-24T00:01:57;42.36;40.23;43.58;;
61095;Laerm;20450;49.074;9.158;2023-07-24T00:04:24;48.33;40.71;66.58;;
61095;Laerm;20450;49.074;9.158;2023-07-24T00:06:51;43.71;41.38;54.09;;
61095;Laerm;20450;49.074;9.158;2023-07-24T00:09:18;43.28;41.61;45.60;;
61095;Laerm;20450;49.074;9.158;2023-07-24T00:11:45;43.23;41.68;45.48;;
61095;Laerm;20450;49.074;9.158;2023-07-24T00:14:12;43.68;41.89;48.39;;
61095;Laerm;20450;49.074;9.158;2023-07-24T00:16:39;43.49;41.38;46.38;;
61095;Laerm;20450;49.074;9.158;2023-07-24T00:19:08;43.01;41.53;44.49;;
61095;Laerm;20450;49.074;9.158;2023-07-24T00:21:35;43.35;41.89;44.90;;
61095;Laerm;20450;49.074;9.158;2023-07-24T00:24:02;43.57;41.46;52.42;;
61095;Laerm;20450;49.074;9.158;2023-07-24T00:26:29;43.99;42.65;45.07;;
61095;Laerm;20450;49.074;9.158;2023-07-24T00:28:57;43.19;41.53;50.38;;
61095;Laerm;20450;49.074;9.158;2023-07-24T00:31:24;43.24;41.82;44.87;;
61095;Laerm;20450;49.074;9.158;2023-07-24T00:33:51;43.53;42.29;45.39;;
61095;Laerm;20450;49.074;9.158;2023-07-24T00:36:19;43.40;41.89;44.69;;
61095;Laerm;20450;49.074;9.158;2023-07-24T00:38:46;43.05;41.89;44.11;;
61095;Laerm;20450;49.074;9.158;2023-07-24T00:41:14;43.33;41.82;44.51;;
61095;Laerm;20450;49.074;9.158;2023-07-24T00:43:41;43.35;41.96;44.76;;
61095;Laerm;20450;49.074;9.158;2023-07-24T00:46:10;43.12;41.68;44.15;;
61095;Laerm;20450;49.074;9.158;2023-07-24T00:48:39;42.92;41.75;44.80;;
61095;Laerm;20450;49.074;9.158;2023-07-24T00:51:07;43.12;41.82;44.45;;
61095;Laerm;20450;49.074;9.158;2023-07-24T00:53:36;42.95;41.61;44.19;;
61095;Laerm;20450;49.074;9.158;2023-07-24T00:56:04;42.87;41.68;43.99;;
61095;Laerm;20450;49.074;9.158;2023-07-24T00:58:31;43.28;41.82;45.42;;
61095;Laerm;20450;49.074;9.158;2023-07-24T01:00:59;43.37;41.75;44.51;;
61095;Laerm;20450;49.074;9.158;2023-07-24T01:03:34;43.38;41.89;45.23;;
61095;Laerm;20450;49.074;9.158;2023-07-24T01:06:03;43.81;42.53;45.46;;
61095;Laerm;20450;49.074;9.158;2023-07-24T01:08:31;43.68;42.35;51.77;;
61095;Laerm;20450;49.074;9.158;2023-07-24T01:11:08;44.03;42.47;45.30;;
61095;Laerm;20450;49.074;9.158;2023-07-24T01:13:44;43.57;42.09;45.23;;
61095;Laerm;20450;49.074;9.158;2023-07-24T01:16:18;43.50;42.09;46.89;;
61095;Laerm;20450;49.074;9.158;2023-07-24T01:18:48;43.46;41.89;44.94;;
61095;Laerm;20450;49.074;9.158;2023-07-24T01:21:42;43.18;42.03;44.95;;
61095;Laerm;20450;49.074;9.158;2023-07-24T01:24:24;43.48;42.09;44.69;;
61095;Laerm;20450;49.074;9.158;2023-07-24T01:26:57;43.89;42.65;45.14;;
61095;Laerm;20450;49.074;9.158;2023-07-24T01:29:26;43.52;42.09;44.76;;
61095;Laerm;20450;49.074;9.158;2023-07-24T01:31:54;43.67;42.22;45.11;;
61095;Laerm;20450;49.074;9.158;2023-07-24T01:34:21;43.83;42.47;45.39;;
61095;Laerm;20450;49.074;9.158;2023-07-24T01:36:50;43.78;42.41;45.07;;
61095;Laerm;20450;49.074;9.158;2023-07-24T01:39:20;43.55;42.16;44.90;;
61095;Laerm;20450;49.074;9.158;2023-07-24T01:41:47;43.62;42.16;44.97;;
61095;Laerm;20450;49.074;9.158;2023-07-24T01:44:17;44.09;42.88;45.54;;
61095;Laerm;20450;49.074;9.158;2023-07-24T01:46:44;43.80;42.47;45.11;;
61095;Laerm;20450;49.074;9.158;2023-07-24T01:49:13;43.73;42.41;44.97;;
61095;Laerm;20450;49.074;9.158;2023-07-24T01:51:43;43.86;42.03;45.17;;
61095;Laerm;20450;49.074;9.158;2023-07-24T01:54:10;44.11;42.71;45.45;;
61095;Laerm;20450;49.074;9.158;2023-07-24T01:56:37;43.71;42.35;45.07;;
61095;Laerm;20450;49.074;9.158;2023-07-24T01:59:04;43.82;42.09;45.39;;
61095;Laerm;20450;49.074;9.158;2023-07-24T02:01:32;43.93;42.74;45.04;;
61095;Laerm;20450;49.074;9.158;2023-07-24T02:04:00;43.98;42.22;45.20;;
61095;Laerm;20450;49.074;9.158;2023-07-24T02:06:27;43.82;42.35;45.20;;
61095;Laerm;20450;49.074;9.158;2023-07-24T02:08:54;43.91;41.68;45.63;;
61095;Laerm;20450;49.074;9.158;2023-07-24T02:11:21;44.08;42.65;45.54;;
61095;Laerm;20450;49.074;9.158;2023-07-24T02:13:48;43.75;42.09;45.45;;
61095;Laerm;20450;49.074;9.158;2023-07-24T02:16:16;43.85;42.47;45.36;;
61095;Laerm;20450;49.074;9.158;2023-07-24T02:18:45;44.36;42.65;45.91;;
61095;Laerm;20450;49.074;9.158;2023-07-24T02:21:12;44.18;42.88;45.48;;
61095;Laerm;20450;49.074;9.158;2023-07-24T02:23:39;44.52;43.19;46.20;;
61095;Laerm;20450;49.074;9.158;2023-07-24T02:26:06;44.30;42.71;45.83;;
61095;Laerm;20450;49.074;9.158;2023-07-24T02:28:33;44.29;42.98;45.69;;
61095;Laerm;20450;49.074;9.158;2023-07-24T02:31:01;44.00;42.47;45.63;;
61095;Laerm;20450;49.074;9.158;2023-07-24T02:33:28;43.89;42.53;45.66;;
61095;Laerm;20450;49.074;9.158;2023-07-24T02:35:56;43.87;42.53;45.23;;
61095;Laerm;20450;49.074;9.158;2023-07-24T02:38:23;43.97;42.71;47.08;;
61095;Laerm;20450;49.074;9.158;2023-07-24T02:40:50;44.02;42.71;45.20;;
61095;Laerm;20450;49.074;9.158;2023-07-24T02:43:17;44.29;42.76;45.97;;
61095;Laerm;20450;49.074;9.158;2023-07-24T02:45:45;44.31;42.93;45.69;;
61095;Laerm;20450;49.074;9.158;2023-07-24T02:48:12;44.29;42.88;46.18;;
61095;Laerm;20450;49.074;9.158;2023-07-24T02:50:39;44.30;42.98;45.69;;
61095;Laerm;20450;49.074;9.158;2023-07-24T02:53:07;44.21;42.88;45.60;;
61095;Laerm;20450;49.074;9.158;2023-07-24T02:55:34;44.38;42.98;45.54;;
61095;Laerm;20450;49.074;9.158;2023-07-24T02:58:02;44.18;42.53;45.66;;
61095;Laerm;20450;49.074;9.158;2023-07-24T03:00:29;44.47;42.95;46.20;;
61095;Laerm;20450;49.074;9.158;2023-07-24T03:02:56;44.40;42.59;45.94;;
61095;Laerm;20450;49.074;9.158;2023-07-24T03:05:23;44.78;43.24;51.08;;
61095;Laerm;20450;49.074;9.158;2023-07-24T03:07:50;44.37;42.93;46.87;;
61095;Laerm;20450;49.074;9.158;2023-07-24T03:10:21;44.28;42.53;46.18;;
61095;Laerm;20450;49.074;9.158;2023-07-24T03:12:48;44.43;42.59;45.89;;
61095;Laerm;20450;49.074;9.158;2023-07-24T03:15:15;44.39;42.47;46.80;;
61095;Laerm;20450;49.074;9.158;2023-07-24T03:17:41;44.77;43.04;46.52;;
61095;Laerm;20450;49.074;9.158;2023-07-24T03:20:15;44.82;42.82;49.46;;
61095;Laerm;20450;49.074;9.158;2023-07-24T03:22:42;44.23;42.82;47.26;;
61095;Laerm;20450;49.074;9.158;2023-07-24T03:25:10;44.46;42.88;46.28;;
61095;Laerm;20450;49.074;9.158;2023-07-24T03:27:39;44.82;43.04;46.59;;
61095;Laerm;20450;49.074;9.158;2023-07-24T03:30:07;44.52;43.09;46.62;;
61095;Laerm;20450;49.074;9.158;2023-07-24T03:32:35;44.28;42.76;45.60;;
61095;Laerm;20450;49.074;9.158;2023-07-24T03:35:04;44.26;42.47;53.68;;
61095;Laerm;20450;49.074;9.158;2023-07-24T03:37:33;44.29;42.65;53.15;;
61095;Laerm;20450;49.074;9.158;2023-07-24T03:40:00;44.75;42.98;49.58;;
61095;Laerm;20450;49.074;9.158;2023-07-24T03:42:31;44.92;43.29;51.75;;
61095;Laerm;20450;49.074;9.158;2023-07-24T03:45:00;44.40;43.09;46.15;;
61095;Laerm;20450;49.074;9.158;2023-07-24T03:47:26;44.13;42.64;45.91;;
61095;Laerm;20450;49.074;9.158;2023-07-24T03:49:54;44.17;42.53;50.92;;
61095;Laerm;20450;49.074;9.158;2023-07-24T03:52:20;44.21;42.47;46.33;;
61095;Laerm;20450;49.074;9.158;2023-07-24T03:54:48;44.45;42.93;46.20;;
61095;Laerm;20450;49.074;9.158;2023-07-24T03:57:14;44.35;42.71;46.57;;
61095;Laerm;20450;49.074;9.158;2023-07-24T03:59:41;44.56;42.71;47.84;;
61095;Laerm;20450;49.074;9.158;2023-07-24T04:02:10;43.97;42.03;45.99;;
61095;Laerm;20450;49.074;9.158;2023-07-24T04:04:37;43.84;42.16;47.34;;
61095;Laerm;20450;49.074;9.158;2023-07-24T04:07:05;43.85;41.75;46.80;;
61095;Laerm;20450;49.074;9.158;2023-07-24T04:09:35;44.32;42.65;46.13;;
61095;Laerm;20450;49.074;9.158;2023-07-24T04:12:05;44.85;43.49;46.38;;
61095;Laerm;20450;49.074;9.158;2023-07-24T04:14:32;45.27;43.68;46.89;;
61095;Laerm;20450;49.074;9.158;2023-07-24T04:16:59;45.20;43.54;48.00;;
61095;Laerm;20450;49.074;9.158;2023-07-24T04:19:28;45.08;43.29;49.67;;
61095;Laerm;20450;49.074;9.158;2023-07-24T04:21:55;44.61;43.04;46.57;;
61095;Laerm;20450;49.074;9.158;2023-07-24T04:24:22;44.70;42.59;48.10;;
61095;Laerm;20450;49.074;9.158;2023-07-24T04:26:49;44.92;43.39;49.87;;
61095;Laerm;20450;49.074;9.158;2023-07-24T04:29:16;44.85;42.98;48.66;;
61095;Laerm;20450;49.074;9.158;2023-07-24T04:31:43;44.88;43.09;52.23;;
61095;Laerm;20450;49.074;9.158;2023-07-24T04:34:10;44.54;43.04;48.91;;
61095;Laerm;20450;49.074;9.158;2023-07-24T04:36:38;44.66;43.14;50.10;;
61095;Laerm;20450;49.074;9.158;2023-07-24T04:39:05;44.45;42.82;49.77;;
61095;Laerm;20450;49.074;9.158;2023-07-24T04:41:32;44.50;42.93;47.12;;
61095;Laerm;20450;49.074;9.158;2023-07-24T04:44:00;44.84;43.19;54.51;;
61095;Laerm;20450;49.074;9.158;2023-07-24T04:46:29;44.93;43.14;50.21;;
61095;Laerm;20450;49.074;9.158;2023-07-24T04:48:57;44.64;42.82;47.46;;
61095;Laerm;20450;49.074;9.158;2023-07-24T04:51:25;44.39;42.76;46.50;;
61095;Laerm;20450;49.074;9.158;2023-07-24T04:53:54;45.04;43.09;58.95;;
61095;Laerm;20450;49.074;9.158;2023-07-24T04:56:22;44.61;42.93;51.64;;
61095;Laerm;20450;49.074;9.158;2023-07-24T04:58:49;44.92;43.19;55.38;;
61095;Laerm;20450;49.074;9.158;2023-07-24T05:01:16;44.86;43.14;50.08;;
61095;Laerm;20450;49.074;9.158;2023-07-24T05:03:43;44.82;43.39;50.07;;
61095;Laerm;20450;49.074;9.158;2023-07-24T05:06:10;44.38;42.59;54.36;;
61095;Laerm;20450;49.074;9.158;2023-07-24T05:08:39;44.69;42.88;51.99;;
61095;Laerm;20450;49.074;9.158;2023-07-24T05:11:07;44.97;43.19;50.57;;
61095;Laerm;20450;49.074;9.158;2023-07-24T05:13:34;44.47;42.65;50.50;;
61095;Laerm;20450;49.074;9.158;2023-07-24T05:16:02;44.31;42.88;47.86;;
61095;Laerm;20450;49.074;9.158;2023-07-24T05:18:37;44.79;42.82;53.22;;
61095;Laerm;20450;49.074;9.158;2023-07-24T05:21:08;45.29;43.44;50.47;;
61095;Laerm;20450;49.074;9.158;2023-07-24T05:23:35;45.36;43.68;49.40;;
61095;Laerm;20450;49.074;9.158;2023-07-24T05:26:03;45.05;43.39;53.53;;
61095;Laerm;20450;49.074;9.158;2023-07-24T05:28:35;45.24;43.44;49.73;;
61095;Laerm;20450;49.074;9.158;2023-07-24T05:31:03;44.95;43.44;50.94;;
61095;Laerm;20450;49.074;9.158;2023-07-24T05:33:30;44.78;42.98;49.35;;
61095;Laerm;20450;49.074;9.158;2023-07-24T05:36:00;44.74;43.09;57.61;;
61095;Laerm;20450;49.074;9.158;2023-07-24T05:38:29;44.87;43.19;52.12;;
61095;Laerm;20450;49.074;9.158;2023-07-24T05:40:58;44.87;42.98;50.40;;
61095;Laerm;20450;49.074;9.158;2023-07-24T05:43:27;44.81;42.88;49.33;;
61095;Laerm;20450;49.074;9.158;2023-07-24T05:45:57;45.21;43.34;52.15;;
61095;Laerm;20450;49.074;9.158;2023-07-24T05:48:26;45.18;43.44;55.04;;
61095;Laerm;20450;49.074;9.158;2023-07-24T05:50:57;44.82;42.82;49.66;;
61095;Laerm;20450;49.074;9.158;2023-07-24T05:53:24;45.12;43.39;50.70;;
61095;Laerm;20450;49.074;9.158;2023-07-24T05:55:59;45.19;43.44;49.28;;
61095;Laerm;20450;49.074;9.158;2023-07-24T05:58:27;46.26;43.44;56.92;;
61095;Laerm;20450;49.074;9.158;2023-07-24T06:00:55;44.93;43.24;57.67;;
61095;Laerm;20450;49.074;9.158;2023-07-24T06:03:23;45.51;43.77;52.67;;
61095;Laerm;20450;49.074;9.158;2023-07-24T06:05:53;44.95;43.14;50.97;;
61095;Laerm;20450;49.074;9.158;2023-07-24T06:08:22;45.55;43.49;49.68;;
61095;Laerm;20450;49.074;9.158;2023-07-24T06:10:50;45.53;42.93;51.72;;
61095;Laerm;20450;49.074;9.158;2023-07-24T06:13:18;45.37;43.44;53.05;;
61095;Laerm;20450;49.074;9.158;2023-07-24T06:15:47;45.40;43.54;51.98;;
61095;Laerm;20450;49.074;9.158;2023-07-24T06:18:16;45.38;43.63;50.13;;
61095;Laerm;20450;49.074;9.158;2023-07-24T06:20:44;45.89;43.58;53.61;;
61095;Laerm;20450;49.074;9.158;2023-07-24T06:23:12;45.20;43.54;48.26;;
61095;Laerm;20450;49.074;9.158;2023-07-24T06:25:40;45.20;43.49;50.32;;
61095;Laerm;20450;49.074;9.158;2023-07-24T06:28:08;46.40;43.81;52.93;;
61095;Laerm;20450;49.074;9.158;2023-07-24T06:30:38;46.43;44.65;54.00;;
61095;Laerm;20450;49.074;9.158;2023-07-24T06:33:05;47.22;45.45;50.21;;
61095;Laerm;20450;49.074;9.158;2023-07-24T06:35:35;47.05;44.97;54.64;;
61095;Laerm;20450;49.074;9.158;2023-07-24T06:38:02;47.06;45.36;49.72;;
61095;Laerm;20450;49.074;9.158;2023-07-24T06:40:30;47.20;45.51;49.43;;
61095;Laerm;20450;49.074;9.158;2023-07-24T06:42:59;46.60;44.62;52.97;;
61095;Laerm;20450;49.074;9.158;2023-07-24T06:45:27;45.63;43.90;48.37;;
61095;Laerm;20450;49.074;9.158;2023-07-24T06:48:09;45.48;43.77;50.23;;
61095;Laerm;20450;49.074;9.158;2023-07-24T06:50:37;46.43;43.49;56.19;;
61095;Laerm;20450;49.074;9.158;2023-07-24T06:53:05;45.56;43.94;51.55;;
61095;Laerm;20450;49.074;9.158;2023-07-24T06:55:33;45.68;43.81;49.65;;
61095;Laerm;20450;49.074;9.158;2023-07-24T06:58:06;45.83;43.72;53.18;;
61095;Laerm;20450;49.074;9.158;2023-07-24T07:00:33;45.86;43.86;48.49;;
61095;Laerm;20450;49.074;9.158;2023-07-24T07:03:01;45.49;43.44;51.28;;
61095;Laerm;20450;49.074;9.158;2023-07-24T07:05:31;45.92;43.39;54.31;;
61095;Laerm;20450;49.074;9.158;2023-07-24T07:08:01;45.40;43.39;53.64;;
61095;Laerm;20450;49.074;9.158;2023-07-24T07:10:30;45.36;43.58;48.73;;
61095;Laerm;20450;49.074;9.158;2023-07-24T07:12:57;45.51;43.81;49.53;;
61095;Laerm;20450;49.074;9.158;2023-07-24T07:15:25;45.60;43.94;54.83;;
61095;Laerm;20450;49.074;9.158;2023-07-24T07:17:53;45.52;43.58;49.33;;
61095;Laerm;20450;49.074;9.158;2023-07-24T07:20:23;45.65;43.85;53.71;;
61095;Laerm;20450;49.074;9.158;2023-07-24T07:22:50;46.08;43.94;49.13;;
61095;Laerm;20450;49.074;9.158;2023-07-24T07:25:20;46.62;44.47;48.90;;
61095;Laerm;20450;49.074;9.158;2023-07-24T07:27:47;47.15;44.65;50.86;;
61095;Laerm;20450;49.074;9.158;2023-07-24T07:30:15;46.83;45.11;49.64;;
61095;Laerm;20450;49.074;9.158;2023-07-24T07:32:43;46.85;44.62;52.21;;
61095;Laerm;20450;49.074;9.158;2023-07-24T07:35:11;46.82;45.01;52.00;;
61095;Laerm;20450;49.074;9.158;2023-07-24T07:37:38;46.63;45.04;51.31;;
61095;Laerm;20450;49.074;9.158;2023-07-24T07:40:07;46.69;44.69;53.38;;
61095;Laerm;20450;49.074;9.158;2023-07-24T07:42:36;46.45;44.76;51.54;;
61095;Laerm;20450;49.074;9.158;2023-07-24T07:45:07;47.44;44.54;67.44;;
61095;Laerm;20450;49.074;9.158;2023-07-24T07:47:35;45.97;44.35;49.51;;
61095;Laerm;20450;49.074;9.158;2023-07-24T07:50:04;46.31;44.39;52.07;;
61095;Laerm;20450;49.074;9.158;2023-07-24T07:52:31;45.69;43.68;51.80;;
61095;Laerm;20450;49.074;9.158;2023-07-24T07:54:59;46.37;44.35;56.62;;
61095;Laerm;20450;49.074;9.158;2023-07-24T07:57:26;45.59;44.07;50.29;;
61095;Laerm;20450;49.074;9.158;2023-07-24T07:59:55;45.85;43.86;52.58;;
61095;Laerm;20450;49.074;9.158;2023-07-24T08:02:27;47.11;43.72;64.02;;
61095;Laerm;20450;49.074;9.158;2023-07-24T08:04:55;46.66;43.86;56.50;;
61095;Laerm;20450;49.074;9.158;2023-07-24T08:11:52;59.67;47.38;86.07;;
61095;Laerm;20450;49.074;9.158;2023-07-24T08:14:23;47.48;44.51;55.93;;
61095;Laerm;20450;49.074;9.158;2023-07-24T08:16:52;49.23;43.94;63.08;;
61095;Laerm;20450;49.074;9.158;2023-07-24T08:19:21;49.45;44.31;63.35;;
61095;Laerm;20450;49.074;9.158;2023-07-24T08:21:49;52.68;43.19;85.34;;
61095;Laerm;20450;49.074;9.158;2023-07-24T08:24:17;46.21;43.39;59.62;;
61095;Laerm;20450;49.074;9.158;2023-07-24T08:26:45;44.44;42.65;52.71;;
61095;Laerm;20450;49.074;9.158;2023-07-24T08:29:12;60.77;43.04;96.88;;
61095;Laerm;20450;49.074;9.158;2023-07-24T08:31:40;44.30;42.47;54.34;;
61095;Laerm;20450;49.074;9.158;2023-07-24T08:34:08;50.43;43.09;82.08;;
61095;Laerm;20450;49.074;9.158;2023-07-24T08:36:38;49.09;43.39;64.94;;
61095;Laerm;20450;49.074;9.158;2023-07-24T08:39:05;47.49;44.03;63.80;;
61095;Laerm;20450;49.074;9.158;2023-07-24T08:41:32;56.68;44.03;83.62;;
61095;Laerm;20450;49.074;9.158;2023-07-24T08:44:02;56.02;44.23;89.98;;
61095;Laerm;20450;49.074;9.158;2023-07-24T08:46:35;47.63;43.34;67.13;;
61095;Laerm;20450;49.074;9.158;2023-07-24T08:49:03;48.65;43.63;67.64;;
61095;Laerm;20450;49.074;9.158;2023-07-24T08:51:32;49.09;43.68;70.12;;
61095;Laerm;20450;49.074;9.158;2023-07-24T08:54:01;46.43;43.39;66.81;;
61095;Laerm;20450;49.074;9.158;2023-07-24T08:56:32;62.05;43.72;95.83;;
61095;Laerm;20450;49.074;9.158;2023-07-24T08:59:01;48.54;43.77;68.60;;
61095;Laerm;20450;49.074;9.158;2023-07-24T09:01:28;47.29;44.27;69.59;;
61095;Laerm;20450;49.074;9.158;2023-07-24T09:03:56;46.54;43.24;65.38;;
61095;Laerm;20450;49.074;9.158;2023-07-24T09:06:23;52.38;43.49;72.61;;
61095;Laerm;20450;49.074;9.158;2023-07-24T09:08:54;45.85;42.71;65.01;;
61095;Laerm;20450;49.074;9.158;2023-07-24T09:11:22;44.55;42.71;55.47;;
61095;Laerm;20450;49.074;9.158;2023-07-24T09:13:50;46.69;43.04;55.14;;
61095;Laerm;20450;49.074;9.158;2023-07-24T09:16:23;47.06;42.93;57.18;;
61095;Laerm;20450;49.074;9.158;2023-07-24T09:18:51;48.67;42.59;57.92;;
61095;Laerm;20450;49.074;9.158;2023-07-24T09:21:29;48.39;42.59;60.90;;
61095;Laerm;20450;49.074;9.158;2023-07-24T09:24:10;50.01;42.22;59.69;;
61095;Laerm;20450;49.074;9.158;2023-07-24T09:26:50;49.14;42.41;60.00;;
61095;Laerm;20450;49.074;9.158;2023-07-24T09:29:31;47.96;42.16;56.06;;
61095;Laerm;20450;49.074;9.158;2023-07-24T09:31:58;48.18;42.09;58.53;;
61095;Laerm;20450;49.074;9.158;2023-07-24T09:34:28;43.93;41.96;59.52;;
61095;Laerm;20450;49.074;9.158;2023-07-24T09:36:55;45.47;42.09;56.96;;
61095;Laerm;20450;49.074;9.158;2023-07-24T09:39:24;47.71;42.35;59.54;;
61095;Laerm;20450;49.074;9.158;2023-07-24T09:41:52;46.25;42.41;58.29;;
61095;Laerm;20450;49.074;9.158;2023-07-24T09:44:19;44.34;41.75;65.42;;
61095;Laerm;20450;49.074;9.158;2023-07-24T09:46:46;45.67;42.35;59.95;;
61095;Laerm;20450;49.074;9.158;2023-07-24T09:49:35;47.21;42.59;64.75;;
61095;Laerm;20450;49.074;9.158;2023-07-24T09:52:09;43.90;42.29;53.41;;
61095;Laerm;20450;49.074;9.158;2023-07-24T09:54:49;43.98;41.82;63.84;;
61095;Laerm;20450;49.074;9.158;2023-07-24T09:57:21;45.37;41.89;63.10;;
61095;Laerm;20450;49.074;9.158;2023-07-24T09:59:51;43.60;42.09;52.84;;
61095;Laerm;20450;49.074;9.158;2023-07-24T10:02:19;44.48;42.59;62.99;;
61095;Laerm;20450;49.074;9.158;2023-07-24T10:04:46;43.95;42.35;49.92;;
61095;Laerm;20450;49.074;9.158;2023-07-24T10:07:17;45.44;43.09;61.08;;
61095;Laerm;20450;49.074;9.158;2023-07-24T10:09:46;46.39;43.19;63.58;;
61095;Laerm;20450;49.074;9.158;2023-07-24T10:12:13;45.49;42.93;58.56;;
61095;Laerm;20450;49.074;9.158;2023-07-24T10:14:41;44.54;42.59;61.45;;
61095;Laerm;20450;49.074;9.158;2023-07-24T10:17:08;44.84;42.65;63.63;;
61095;Laerm;20450;49.074;9.158;2023-07-24T10:19:36;44.89;42.98;58.66;;
61095;Laerm;20450;49.074;9.158;2023-07-24T10:22:06;45.33;42.41;62.15;;
61095;Laerm;20450;49.074;9.158;2023-07-24T10:24:33;43.56;41.75;58.13;;
61095;Laerm;20450;49.074;9.158;2023-07-24T10:27:12;43.69;41.38;58.46;;
61095;Laerm;20450;49.074;9.158;2023-07-24T10:29:39;44.09;42.24;58.03;;
61095;Laerm;20450;49.074;9.158;2023-07-24T10:32:17;43.93;41.89;59.88;;
61095;Laerm;20450;49.074;9.158;2023-07-24T10:34:44;43.93;41.53;64.51;;
61095;Laerm;20450;49.074;9.158;2023-07-24T10:37:12;43.66;41.68;59.70;;
61095;Laerm;20450;49.074;9.158;2023-07-24T10:39:41;44.04;41.96;58.93;;
61095;Laerm;20450;49.074;9.158;2023-07-24T10:42:11;43.62;41.53;62.53;;
61095;Laerm;20450;49.074;9.158;2023-07-24T10:44:39;43.52;41.68;53.74;;
61095;Laerm;20450;49.074;9.158;2023-07-24T10:47:06;43.72;41.89;64.54;;
61095;Laerm;20450;49.074;9.158;2023-07-24T10:49:34;44.19;42.41;58.08;;
61095;Laerm;20450;49.074;9.158;2023-07-24T10:52:01;44.03;41.75;56.86;;
61095;Laerm;20450;49.074;9.158;2023-07-24T10:54:28;44.18;42.09;54.71;;
61095;Laerm;20450;49.074;9.158;2023-07-24T10:56:59;44.19;42.29;46.82;;
61095;Laerm;20450;49.074;9.158;2023-07-24T10:59:40;43.98;42.16;49.11;;
61095;Laerm;20450;49.074;9.158;2023-07-24T11:02:07;43.73;41.53;50.56;;
61095;Laerm;20450;49.074;9.158;2023-07-24T11:04:35;44.53;41.89;54.28;;
61095;Laerm;20450;49.074;9.158;2023-07-24T11:07:03;49.35;42.93;77.52;;
61095;Laerm;20450;49.074;9.158;2023-07-24T11:09:35;55.16;42.35;75.56;;
61095;Laerm;20450;49.074;9.158;2023-07-24T11:12:11;45.06;41.75;59.62;;
61095;Laerm;20450;49.074;9.158;2023-07-24T11:14:52;44.90;42.22;61.09;;
61095;Laerm;20450;49.074;9.158;2023-07-24T11:17:20;44.88;42.71;54.18;;
61095;Laerm;20450;49.074;9.158;2023-07-24T11:19:48;44.35;41.68;65.99;;
61095;Laerm;20450;49.074;9.158;2023-07-24T11:22:15;43.45;40.23;60.89;;
61095;Laerm;20450;49.074;9.158;2023-07-24T11:24:50;43.06;40.33;52.02;;
61095;Laerm;20450;49.074;9.158;2023-07-24T11:27:19;52.70;41.38;82.33;;
61095;Laerm;20450;49.074;9.158;2023-07-24T11:29:49;44.31;40.62;64.66;;
61095;Laerm;20450;49.074;9.158;2023-07-24T11:32:18;48.14;41.68;69.66;;
61095;Laerm;20450;49.074;9.158;2023-07-24T11:34:46;46.74;41.96;65.06;;
61095;Laerm;20450;49.074;9.158;2023-07-24T11:37:14;47.06;41.46;67.25;;
61095;Laerm;20450;49.074;9.158;2023-07-24T11:39:42;45.41;40.53;65.75;;
61095;Laerm;20450;49.074;9.158;2023-07-24T11:42:09;46.03;40.62;66.53;;
61095;Laerm;20450;49.074;9.158;2023-07-24T11:44:36;45.28;40.53;62.04;;
61095;Laerm;20450;49.074;9.158;2023-07-24T11:47:07;45.81;41.06;64.40;;
61095;Laerm;20450;49.074;9.158;2023-07-24T11:49:34;45.47;40.43;66.92;;
61095;Laerm;20450;49.074;9.158;2023-07-24T11:52:04;44.91;40.33;67.03;;
61095;Laerm;20450;49.074;9.158;2023-07-24T11:54:34;42.61;39.08;47.50;;
61095;Laerm;20450;49.074;9.158;2023-07-24T11:57:01;46.24;38.52;67.32;;
61095;Laerm;20450;49.074;9.158;2023-07-24T11:59:37;45.21;39.99;51.51;;
61095;Laerm;20450;49.074;9.158;2023-07-24T12:02:04;52.21;41.14;61.65;;
61095;Laerm;20450;49.074;9.158;2023-07-24T12:04:33;47.80;40.80;57.01;;
61095;Laerm;20450;49.074;9.158;2023-07-24T12:07:00;53.32;41.68;62.36;;
61095;Laerm;20450;49.074;9.158;2023-07-24T12:09:30;47.84;41.68;58.59;;
61095;Laerm;20450;49.074;9.158;2023-07-24T12:11:59;46.58;43.49;51.70;;
61095;Laerm;20450;49.074;9.158;2023-07-24T12:14:25;44.53;41.03;53.86;;
61095;Laerm;20450;49.074;9.158;2023-07-24T12:17:01;44.97;41.14;55.23;;
61095;Laerm;20450;49.074;9.158;2023-07-24T12:19:28;46.01;42.76;60.79;;
61095;Laerm;20450;49.074;9.158;2023-07-24T12:21:56;49.74;42.29;58.01;;
61095;Laerm;20450;49.074;9.158;2023-07-24T12:24:23;44.03;39.92;54.17;;
61095;Laerm;20450;49.074;9.158;2023-07-24T12:26:50;41.18;37.88;45.91;;
61095;Laerm;20450;49.074;9.158;2023-07-24T12:29:17;42.53;39.08;48.46;;
61095;Laerm;20450;49.074;9.158;2023-07-24T12:31:44;42.23;38.95;48.48;;
61095;Laerm;20450;49.074;9.158;2023-07-24T12:34:11;42.46;38.05;57.67;;
61095;Laerm;20450;49.074;9.158;2023-07-24T12:36:38;42.53;38.37;51.59;;
61095;Laerm;20450;49.074;9.158;2023-07-24T12:39:07;43.13;40.23;50.80;;
61095;Laerm;20450;49.074;9.158;2023-07-24T12:41:35;42.27;38.95;47.16;;
61095;Laerm;20450;49.074;9.158;2023-07-24T12:44:02;42.52;38.52;51.28;;
61095;Laerm;20450;49.074;9.158;2023-07-24T12:46:30;41.96;38.81;56.12;;
61095;Laerm;20450;49.074;9.158;2023-07-24T12:48:58;43.30;39.34;52.13;;
61095;Laerm;20450;49.074;9.158;2023-07-24T12:51:25;43.09;38.81;61.30;;
61095;Laerm;20450;49.074;9.158;2023-07-24T12:53:52;42.41;38.52;55.04;;
61095;Laerm;20450;49.074;9.158;2023-07-24T12:56:42;42.98;38.37;50.77;;
61095;Laerm;20450;49.074;9.158;2023-07-24T12:59:09;42.05;38.37;51.75;;
61095;Laerm;20450;49.074;9.158;2023-07-24T13:01:36;42.20;38.67;50.62;;
61095;Laerm;20450;49.074;9.158;2023-07-24T13:04:04;42.24;38.37;48.61;;
61095;Laerm;20450;49.074;9.158;2023-07-24T13:06:31;41.35;38.52;45.97;;
61095;Laerm;20450;49.074;9.158;2023-07-24T13:09:00;41.74;38.67;49.24;;
61095;Laerm;20450;49.074;9.158;2023-07-24T13:11:28;41.88;38.67;51.06;;
61095;Laerm;20450;49.074;9.158;2023-07-24T13:13:59;42.17;39.81;45.33;;
61095;Laerm;20450;49.074;9.158;2023-07-24T13:16:27;42.38;39.46;57.13;;
61095;Laerm;20450;49.074;9.158;2023-07-24T13:18:55;41.80;39.08;47.39;;
61095;Laerm;20450;49.074;9.158;2023-07-24T13:21:24;45.01;39.08;65.02;;
61095;Laerm;20450;49.074;9.158;2023-07-24T13:23:52;43.19;39.46;56.04;;
61095;Laerm;20450;49.074;9.158;2023-07-24T13:26:19;42.57;39.58;51.57;;
61095;Laerm;20450;49.074;9.158;2023-07-24T13:28:46;42.85;39.58;50.37;;
61095;Laerm;20450;49.074;9.158;2023-07-24T13:31:18;43.85;40.80;47.46;;
61095;Laerm;20450;49.074;9.158;2023-07-24T13:33:46;43.66;40.03;57.21;;
61095;Laerm;20450;49.074;9.158;2023-07-24T13:36:14;42.73;39.34;53.14;;
61095;Laerm;20450;49.074;9.158;2023-07-24T13:38:41;42.86;38.18;60.82;;
61095;Laerm;20450;49.074;9.158;2023-07-24T13:41:08;42.53;38.37;51.96;;
61095;Laerm;20450;49.074;9.158;2023-07-24T13:43:35;41.75;38.21;53.48;;
61095;Laerm;20450;49.074;9.158;2023-07-24T13:46:02;43.16;38.67;55.82;;
61095;Laerm;20450;49.074;9.158;2023-07-24T13:48:31;42.33;38.81;47.96;;
61095;Laerm;20450;49.074;9.158;2023-07-24T13:50:58;43.86;39.81;58.93;;
61095;Laerm;20450;49.074;9.158;2023-07-24T13:53:25;43.44;39.81;54.91;;
61095;Laerm;20450;49.074;9.158;2023-07-24T13:55:52;43.23;38.37;52.74;;
61095;Laerm;20450;49.074;9.158;2023-07-24T13:58:20;43.56;39.92;53.29;;